createdAt,value
2023-03-06T00:01:02.547Z,99295.78
2023-03-06T00:03:31.048Z,99309.22
2023-03-06T00:06:00.153Z,99314.34
2023-03-06T00:08:29.182Z,99317.34
2023-03-06T00:10:58.204Z,99306.25
2023-03-06T00:13:30.059Z,99312.44
2023-03-06T00:16:03.058Z,99306.87
2023-03-06T00:18:31.227Z,99308.00
2023-03-06T00:20:59.897Z,99300.22
2023-03-06T00:23:28.197Z,99302.38
2023-03-06T00:25:56.351Z,99292.94
2023-03-06T00:28:25.248Z,99294.66
2023-03-06T00:30:53.524Z,99277.94
2023-03-06T00:33:21.696Z,99285.72
2023-03-06T00:35:50.090Z,99289.12
2023-03-06T00:38:18.395Z,99285.72
2023-03-06T00:40:46.768Z,99271.47
2023-03-06T00:43:15.191Z,99283.84
2023-03-06T00:45:43.529Z,99279.97
2023-03-06T00:48:11.730Z,99283.16
2023-03-06T00:50:40.169Z,99289.50
2023-03-06T00:53:08.435Z,99286.53
2023-03-06T00:55:36.768Z,99280.19
2023-03-06T00:58:05.206Z,99284.50
2023-03-06T01:00:33.570Z,99279.44
2023-03-06T01:03:01.899Z,99281.72
2023-03-06T01:05:33.810Z,99274.72
2023-03-06T01:08:04.020Z,99273.81
2023-03-06T01:10:33.689Z,99273.91
2023-03-06T01:13:01.733Z,99267.13
2023-03-06T01:15:30.039Z,99273.09
2023-03-06T01:17:59.255Z,99262.53
2023-03-06T01:20:27.764Z,99267.56
2023-03-06T01:22:56.684Z,99254.00
2023-03-06T01:25:26.270Z,99259.97
2023-03-06T01:27:54.518Z,99255.03
2023-03-06T01:30:22.710Z,99261.59
2023-03-06T01:32:51.085Z,99245.91
2023-03-06T01:35:19.242Z,99254.09
2023-03-06T01:37:47.739Z,99245.06
2023-03-06T01:40:16.154Z,99246.59
2023-03-06T01:42:46.857Z,99252.56
2023-03-06T01:45:15.241Z,99247.09
2023-03-06T01:47:44.831Z,99246.09
2023-03-06T01:50:13.256Z,99243.50
2023-03-06T01:52:53.841Z,99246.19
2023-03-06T01:55:31.010Z,99248.06
2023-03-06T01:58:03.675Z,99252.06
2023-03-06T02:00:32.265Z,99244.94
2023-03-06T02:03:10.047Z,99250.81
2023-03-06T02:05:40.722Z,99249.06
2023-03-06T02:08:13.392Z,99247.72
2023-03-06T02:11:10.699Z,99249.25
2023-03-06T02:13:40.304Z,99248.88
2023-03-06T02:16:10.805Z,99236.41
2023-03-06T02:18:42.340Z,99232.63
2023-03-06T02:21:20.299Z,99240.50
2023-03-06T02:24:07.794Z,99230.03
2023-03-06T02:26:37.832Z,99243.47
2023-03-06T02:29:08.829Z,99234.22
2023-03-06T02:31:37.368Z,99242.97
2023-03-06T02:34:27.765Z,99240.72
2023-03-06T02:37:02.001Z,99225.19
2023-03-06T02:39:34.214Z,99243.75
2023-03-06T02:42:02.864Z,99237.88
2023-03-06T02:44:34.783Z,99230.38
2023-03-06T02:47:03.475Z,99247.44
2023-03-06T02:49:31.730Z,99246.72
2023-03-06T02:51:59.930Z,99236.03
2023-03-06T02:54:28.417Z,99233.88
2023-03-06T02:56:56.587Z,99231.53
2023-03-06T02:59:25.145Z,99239.25
2023-03-06T03:01:56.805Z,99233.47
2023-03-06T03:04:25.638Z,99238.50
2023-03-06T03:06:54.131Z,99243.38
2023-03-06T03:09:22.981Z,99245.00
2023-03-06T03:11:51.304Z,99248.66
2023-03-06T03:14:20.097Z,99249.34
2023-03-06T03:16:48.824Z,99248.38
2023-03-06T03:19:17.196Z,99230.91
2023-03-06T03:21:46.359Z,99236.72
2023-03-06T03:24:14.946Z,99233.72
2023-03-06T03:26:43.501Z,99231.25
2023-03-06T03:29:12.686Z,99235.34
2023-03-06T03:31:41.278Z,99227.88
2023-03-06T03:34:09.559Z,99221.72
2023-03-06T03:36:38.591Z,99230.34
2023-03-06T03:39:07.724Z,99223.44
2023-03-06T03:41:36.407Z,99224.03
2023-03-06T03:44:05.169Z,99220.56
2023-03-06T03:46:34.341Z,99223.00
2023-03-06T03:49:03.117Z,99224.84
2023-03-06T03:51:33.001Z,99225.97
2023-03-06T03:54:01.769Z,99223.81
2023-03-06T03:56:30.658Z,99208.97
2023-03-06T03:58:59.747Z,99228.78
2023-03-06T04:01:28.932Z,99219.94
2023-03-06T04:03:58.206Z,99221.75
2023-03-06T04:06:26.406Z,99224.22
2023-03-06T04:08:55.050Z,99218.16
2023-03-06T04:11:24.808Z,99217.91
2023-03-06T04:13:53.129Z,99231.41
2023-03-06T04:16:21.698Z,99230.59
2023-03-06T04:18:51.832Z,99231.22
2023-03-06T04:21:21.258Z,99234.09
2023-03-06T04:23:49.900Z,99234.72
2023-03-06T04:26:18.693Z,99229.81
2023-03-06T04:28:47.231Z,99228.84
2023-03-06T04:31:15.820Z,99235.41
2023-03-06T04:33:45.148Z,99240.06
2023-03-06T04:36:35.007Z,99226.00
2023-03-06T04:39:04.985Z,99224.22
2023-03-06T04:41:33.568Z,99225.53
2023-03-06T04:44:02.018Z,99232.78
2023-03-06T04:46:30.634Z,99226.06
2023-03-06T04:48:58.729Z,99225.75
2023-03-06T04:51:27.797Z,99227.38
2023-03-06T04:53:56.555Z,99231.69
2023-03-06T04:56:24.752Z,99225.25
2023-03-06T04:58:53.545Z,99220.41
2023-03-06T05:01:22.034Z,99214.41
2023-03-06T05:03:50.266Z,99220.66
2023-03-06T05:06:18.405Z,99222.53
2023-03-06T05:08:47.958Z,99221.16
2023-03-06T05:11:16.100Z,99228.94
2023-03-06T05:13:44.738Z,99219.09
2023-03-06T05:16:13.271Z,99224.88
2023-03-06T05:18:41.639Z,99225.38
2023-03-06T05:21:09.767Z,99225.25
2023-03-06T05:23:39.014Z,99222.41
2023-03-06T05:26:15.159Z,99215.81
2023-03-06T05:28:43.660Z,99230.94
2023-03-06T05:31:11.845Z,99222.31
2023-03-06T05:33:40.200Z,99232.06
2023-03-06T05:36:10.369Z,99227.47
2023-03-06T05:38:38.809Z,99228.78
2023-03-06T05:41:07.283Z,99224.28
2023-03-06T05:43:35.974Z,99227.44
2023-03-06T05:46:05.622Z,99232.78
2023-03-06T05:48:35.009Z,99236.56
2023-03-06T05:51:05.007Z,99238.44
2023-03-06T05:53:33.335Z,99229.09
2023-03-06T05:56:04.681Z,99224.69
2023-03-06T05:58:34.012Z,99224.06
2023-03-06T06:01:12.572Z,99225.41
2023-03-06T06:03:41.553Z,99217.38
2023-03-06T06:06:12.346Z,99229.09
2023-03-06T06:08:41.263Z,99226.22
2023-03-06T06:11:11.490Z,99213.91
2023-03-06T06:13:40.674Z,99231.66
2023-03-06T06:16:17.826Z,99230.41
2023-03-06T06:18:46.056Z,99234.62
2023-03-06T06:21:15.027Z,99232.50
2023-03-06T06:23:43.477Z,99229.41
2023-03-06T06:26:14.566Z,99244.56
2023-03-06T06:28:43.057Z,99240.88
2023-03-06T06:31:13.455Z,99245.69
2023-03-06T06:33:42.077Z,99240.88
2023-03-06T06:36:19.341Z,99238.94
2023-03-06T06:38:48.308Z,99243.66
2023-03-06T06:41:39.246Z,99235.97
2023-03-06T06:44:08.439Z,99245.09
2023-03-06T06:49:26.228Z,99241.50
2023-03-06T06:51:54.692Z,99227.16
2023-03-06T06:54:22.809Z,99242.53
2023-03-06T06:56:51.615Z,99235.97
2023-03-06T06:59:20.561Z,99236.16
2023-03-06T07:01:48.869Z,99227.66
2023-03-06T07:04:18.269Z,99243.38
2023-03-06T07:06:46.993Z,99240.38
2023-03-06T07:09:15.243Z,99235.53
2023-03-06T07:11:43.775Z,99245.78
2023-03-06T07:14:12.319Z,99246.19
2023-03-06T07:16:40.452Z,99256.88
2023-03-06T07:19:09.021Z,99257.78
2023-03-06T07:21:37.407Z,99252.66
2023-03-06T07:24:05.634Z,99261.59
2023-03-06T07:26:34.855Z,99258.91
2023-03-06T07:29:04.534Z,99257.28
2023-03-06T07:31:33.003Z,99255.44
2023-03-06T07:34:05.166Z,99265.25
2023-03-06T07:36:34.725Z,99254.41
2023-03-06T07:39:02.872Z,99265.59
2023-03-06T07:41:31.575Z,99266.38
2023-03-06T07:43:59.981Z,99273.47
2023-03-06T07:46:28.595Z,99270.19
2023-03-06T07:48:58.360Z,99267.19
2023-03-06T07:51:26.916Z,99270.63
2023-03-06T07:53:55.294Z,99278.50
2023-03-06T07:56:23.527Z,99286.72
2023-03-06T07:58:52.045Z,99284.66
2023-03-06T08:01:23.522Z,99283.13
2023-03-06T08:03:52.815Z,99286.91
2023-03-06T08:06:26.328Z,99275.47
2023-03-06T08:08:56.800Z,99268.97
2023-03-06T08:11:28.227Z,99280.34
2023-03-06T08:13:58.460Z,99283.22
2023-03-06T08:16:29.955Z,99280.25
2023-03-06T08:18:58.835Z,99281.69
2023-03-06T08:21:28.314Z,99283.97
2023-03-06T08:23:56.850Z,99280.44
2023-03-06T08:26:34.798Z,99276.25
2023-03-06T08:29:03.549Z,99281.47
2023-03-06T08:31:37.372Z,99284.66
2023-03-06T08:34:09.396Z,99282.00
2023-03-06T08:36:38.362Z,99284.34
2023-03-06T08:39:07.342Z,99279.59
2023-03-06T08:41:36.486Z,99270.06
2023-03-06T08:44:05.542Z,99274.06
2023-03-06T08:46:34.975Z,99276.91
2023-03-06T08:49:04.004Z,99276.00
2023-03-06T08:51:32.867Z,99272.69
2023-03-06T08:54:01.499Z,99277.19
2023-03-06T08:56:34.484Z,99290.16
2023-03-06T08:59:05.598Z,99289.28
2023-03-06T09:01:36.871Z,99280.34
2023-03-06T09:04:08.530Z,99277.81
2023-03-06T09:06:39.801Z,99286.44
2023-03-06T09:09:08.817Z,99283.47
2023-03-06T09:11:37.738Z,99286.31
2023-03-06T09:14:06.946Z,99273.78
2023-03-06T09:16:35.536Z,99259.53
2023-03-06T09:19:03.904Z,99268.50
2023-03-06T09:21:32.282Z,99252.41
2023-03-06T09:24:00.696Z,99255.94
2023-03-06T09:26:43.428Z,99258.41
2023-03-06T09:29:16.566Z,99261.78
2023-03-06T09:31:45.238Z,99263.19
2023-03-06T09:34:14.486Z,99260.59
2023-03-06T09:36:56.131Z,99254.41
2023-03-06T09:39:27.221Z,99251.47
2023-03-06T09:41:58.431Z,99242.50
2023-03-06T09:44:30.367Z,99247.66
2023-03-06T09:47:17.331Z,99250.19
2023-03-06T09:50:21.206Z,99249.28
2023-03-06T09:52:55.944Z,99252.66
2023-03-06T09:55:31.361Z,99241.31
2023-03-06T09:58:23.094Z,99245.87
2023-03-06T10:00:57.199Z,99245.38
2023-03-06T10:03:54.206Z,99246.34
2023-03-06T10:06:34.939Z,99239.78
2023-03-06T10:09:26.476Z,99242.94
2023-03-06T10:12:23.661Z,99244.47
2023-03-06T10:15:18.901Z,99249.13
2023-03-06T10:17:47.485Z,99241.28
2023-03-06T10:20:18.704Z,99246.87
2023-03-06T10:23:25.049Z,99236.41
2023-03-06T10:26:08.220Z,99247.28
2023-03-06T10:29:04.280Z,99237.22
2023-03-06T10:31:34.661Z,99234.72
2023-03-06T10:34:20.392Z,99231.44
2023-03-06T10:36:50.156Z,99227.69
2023-03-06T10:39:22.279Z,99220.31
2023-03-06T10:41:51.017Z,99215.97
2023-03-06T10:44:20.864Z,99203.25
2023-03-06T10:46:51.968Z,99207.31
2023-03-06T10:49:56.311Z,99199.28
2023-03-06T10:52:31.655Z,99204.75
2023-03-06T10:55:23.942Z,99193.28
2023-03-06T10:57:52.556Z,99188.56
2023-03-06T11:00:25.523Z,99185.56
2023-03-06T11:03:11.196Z,99179.13
2023-03-06T11:05:40.587Z,99173.78
2023-03-06T11:08:21.811Z,99176.50
2023-03-06T11:11:00.266Z,99166.97
2023-03-06T11:13:32.241Z,99160.81
2023-03-06T11:16:04.925Z,99153.69
2023-03-06T11:18:39.914Z,99153.25
2023-03-06T11:21:33.404Z,99154.34
2023-03-06T11:24:18.922Z,99146.94
2023-03-06T11:26:59.629Z,99140.75
2023-03-06T11:29:43.211Z,99131.63
2023-03-06T11:32:22.896Z,99126.34
2023-03-06T11:34:59.311Z,99123.56
2023-03-06T11:37:47.691Z,99121.34
2023-03-06T11:40:20.900Z,99106.88
2023-03-06T11:43:20.677Z,99093.59
2023-03-06T11:46:00.546Z,99095.59
2023-03-06T11:48:35.734Z,99092.06
2023-03-06T11:51:18.902Z,99091.69
2023-03-06T11:53:50.998Z,99093.78
2023-03-06T11:56:31.404Z,99083.56
2023-03-06T11:59:23.319Z,99080.69
2023-03-06T12:02:06.532Z,99069.69
2023-03-06T12:05:07.211Z,99052.38
2023-03-06T12:07:51.529Z,99054.22
2023-03-06T12:10:36.376Z,99056.87
2023-03-06T12:16:24.590Z,99052.78
2023-03-06T12:19:05.237Z,99052.69
2023-03-06T12:21:53.806Z,99048.25
2023-03-06T12:24:30.578Z,99040.25
2023-03-06T12:27:36.194Z,99047.94
2023-03-06T12:30:22.697Z,99046.88
2023-03-06T12:33:16.401Z,99047.38
2023-03-06T12:36:02.454Z,99029.41
2023-03-06T12:38:37.492Z,99028.06
2023-03-06T12:41:10.970Z,99042.28
2023-03-06T12:44:01.388Z,99037.00
2023-03-06T12:46:30.799Z,99035.56
2023-03-06T12:49:08.954Z,99026.78
2023-03-06T12:51:40.141Z,99030.03
2023-03-06T12:54:12.765Z,99028.38
2023-03-06T12:56:42.516Z,99024.19
2023-03-06T12:59:37.322Z,99013.50
2023-03-06T13:02:33.535Z,99015.06
2023-03-06T13:05:23.280Z,99013.03
2023-03-06T13:08:22.187Z,99021.53
2023-03-06T13:11:16.218Z,99017.87
2023-03-06T13:13:49.325Z,99009.94
2023-03-06T13:16:34.531Z,99015.31
2023-03-06T13:19:19.356Z,99000.03
2023-03-06T13:21:54.187Z,99011.41
2023-03-06T13:24:26.095Z,99003.75
2023-03-06T13:27:34.582Z,99007.09
2023-03-06T13:30:34.893Z,98996.91
2023-03-06T13:33:37.190Z,98992.41
2023-03-06T13:36:34.106Z,98991.09
2023-03-06T13:39:08.697Z,98978.63
2023-03-06T13:42:01.110Z,98985.03
2023-03-06T13:44:30.797Z,98985.88
2023-03-06T13:47:06.475Z,98984.66
2023-03-06T13:49:35.780Z,98984.09
2023-03-06T13:52:10.347Z,98980.09
2023-03-06T13:55:13.335Z,98983.31
2023-03-06T13:58:24.751Z,98985.28
2023-03-06T14:01:46.032Z,98986.19
2023-03-06T14:04:30.882Z,98979.03
2023-03-06T14:06:59.077Z,98979.59
2023-03-06T14:09:34.416Z,98968.59
2023-03-06T14:12:08.281Z,98965.84
2023-03-06T14:14:44.119Z,98971.44
2023-03-06T14:17:23.135Z,98974.97
2023-03-06T14:19:52.195Z,98963.25
2023-03-06T14:22:24.900Z,98958.66
2023-03-06T14:25:01.466Z,98961.22
2023-03-06T14:27:42.397Z,98955.13
2023-03-06T14:30:15.280Z,98954.59
2023-03-06T14:32:44.217Z,98951.88
2023-03-06T14:35:29.915Z,98947.50
2023-03-06T14:38:00.880Z,98951.53
2023-03-06T14:40:42.825Z,98953.44
2023-03-06T14:43:23.231Z,98944.16
2023-03-06T14:45:52.962Z,98938.00
2023-03-06T14:48:21.943Z,98934.31
2023-03-06T14:50:55.564Z,98939.72
2023-03-06T14:53:28.136Z,98936.31
2023-03-06T14:56:01.523Z,98946.84
2023-03-06T14:58:39.288Z,98937.06
2023-03-06T15:01:11.576Z,98932.09
2023-03-06T15:03:48.453Z,98929.25
2023-03-06T15:06:23.248Z,98934.53
2023-03-06T15:09:06.484Z,98934.13
2023-03-06T15:12:02.337Z,98919.06
2023-03-06T15:14:56.177Z,98932.25
2023-03-06T15:17:28.648Z,98934.41
2023-03-06T15:19:59.534Z,98924.34
2023-03-06T15:22:30.691Z,98932.25
2023-03-06T15:25:30.033Z,98924.25
2023-03-06T15:28:01.691Z,98918.63
2023-03-06T15:30:33.816Z,98917.16
2023-03-06T15:33:25.731Z,98922.56
2023-03-06T15:36:01.947Z,98912.13
2023-03-06T15:38:40.088Z,98912.97
2023-03-06T15:41:22.473Z,98925.19
2023-03-06T15:43:51.358Z,98920.72
2023-03-06T15:46:19.933Z,98919.06
2023-03-06T15:49:14.300Z,98912.41
2023-03-06T15:51:43.051Z,98912.28
2023-03-06T15:54:12.571Z,98919.44
2023-03-06T15:56:43.657Z,98916.84
2023-03-06T15:59:25.579Z,98919.31
2023-03-06T16:01:54.499Z,98917.56
2023-03-06T16:04:22.981Z,98921.72
2023-03-06T16:06:51.302Z,98930.12
2023-03-06T16:09:19.447Z,98930.41
2023-03-06T16:11:48.461Z,98930.22
2023-03-06T16:14:23.877Z,98930.53
2023-03-06T16:16:55.235Z,98933.78
2023-03-06T16:19:27.362Z,98932.03
2023-03-06T16:21:57.035Z,98934.03
2023-03-06T16:24:26.401Z,98929.62
2023-03-06T16:26:55.782Z,98917.16
2023-03-06T16:29:26.153Z,98918.91
2023-03-06T16:31:56.638Z,98912.13
2023-03-06T16:34:25.499Z,98916.56
2023-03-06T16:36:53.647Z,98925.31
2023-03-06T16:39:24.300Z,98923.16
2023-03-06T16:41:53.051Z,98926.69
2023-03-06T16:44:22.004Z,98939.41
2023-03-06T16:46:50.965Z,98924.31
2023-03-06T16:49:24.186Z,98926.19
2023-03-06T16:51:54.003Z,98927.94
2023-03-06T16:54:26.110Z,98932.28
2023-03-06T16:56:54.149Z,98939.06
2023-03-06T16:59:23.901Z,98934.16
2023-03-06T17:01:52.517Z,98937.44
2023-03-06T17:04:20.972Z,98931.59
2023-03-06T17:06:49.880Z,98936.72
2023-03-06T17:09:18.088Z,98931.72
2023-03-06T17:11:46.905Z,98934.16
2023-03-06T17:14:15.625Z,98935.13
2023-03-06T17:16:43.932Z,98938.62
2023-03-06T17:19:17.209Z,98927.25
2023-03-06T17:21:45.976Z,98925.19
2023-03-06T17:24:14.355Z,98935.34
2023-03-06T17:26:43.677Z,98918.97
2023-03-06T17:29:12.332Z,98910.00
2023-03-06T17:31:40.856Z,98921.22
2023-03-06T17:34:09.172Z,98913.13
2023-03-06T17:36:39.162Z,98921.28
2023-03-06T17:39:08.217Z,98922.53
2023-03-06T17:41:37.714Z,98902.34
2023-03-06T17:44:08.039Z,98903.28
2023-03-06T17:46:39.119Z,98909.06
2023-03-06T17:49:08.780Z,98907.97
2023-03-06T17:51:38.469Z,98914.50
2023-03-06T17:54:06.650Z,98919.78
2023-03-06T17:56:35.508Z,98915.19
2023-03-06T17:59:04.482Z,98922.16
2023-03-06T18:01:33.245Z,98924.56
2023-03-06T18:04:03.839Z,98927.00
2023-03-06T18:06:33.605Z,98932.31
2023-03-06T18:09:05.176Z,98925.19
2023-03-06T18:11:34.249Z,98933.41
2023-03-06T18:14:05.549Z,98915.34
2023-03-06T18:16:34.087Z,98924.31
2023-03-06T18:19:03.450Z,98929.34
2023-03-06T18:21:32.040Z,98938.50
2023-03-06T18:24:01.982Z,98941.06
2023-03-06T18:26:30.894Z,98923.41
2023-03-06T18:29:03.802Z,98913.97
2023-03-06T18:31:35.118Z,98903.06
2023-03-06T18:34:07.977Z,98921.53
2023-03-06T18:36:37.486Z,98925.09
2023-03-06T18:39:08.955Z,98913.50
2023-03-06T18:41:37.988Z,98917.97
2023-03-06T18:44:06.329Z,98917.25
2023-03-06T18:46:37.994Z,98921.19
2023-03-06T18:49:07.412Z,98918.09
2023-03-06T18:51:36.074Z,98906.88
2023-03-06T18:54:05.654Z,98899.25
2023-03-06T18:56:34.810Z,98903.97
2023-03-06T18:59:04.675Z,98904.69
2023-03-06T19:01:33.762Z,98895.28
2023-03-06T19:04:04.380Z,98903.84
2023-03-06T19:06:32.536Z,98900.00
2023-03-06T19:09:02.405Z,98911.16
2023-03-06T19:11:32.350Z,98915.12
2023-03-06T19:14:01.241Z,98911.06
2023-03-06T19:16:31.296Z,98912.34
2023-03-06T19:19:01.019Z,98909.44
2023-03-06T19:21:30.094Z,98906.53
2023-03-06T19:23:59.272Z,98914.47
2023-03-06T19:26:28.295Z,98911.66
2023-03-06T19:28:56.635Z,98909.78
2023-03-06T19:31:27.406Z,98903.25
2023-03-06T19:33:57.036Z,98889.47
2023-03-06T19:36:28.951Z,98903.13
2023-03-06T19:38:59.298Z,98894.63
2023-03-06T19:41:28.745Z,98890.16
2023-03-06T19:43:59.544Z,98887.31
2023-03-06T19:46:28.472Z,98873.78
2023-03-06T19:49:00.568Z,98884.88
2023-03-06T19:51:30.027Z,98883.72
2023-03-06T19:53:58.163Z,98885.63
2023-03-06T19:56:29.275Z,98880.25
2023-03-06T19:58:58.733Z,98886.69
2023-03-06T20:01:28.425Z,98894.84
2023-03-06T20:03:59.870Z,98890.88
2023-03-06T20:06:33.547Z,98889.03
2023-03-06T20:09:06.206Z,98877.34
2023-03-06T20:11:35.174Z,98891.81
2023-03-06T20:14:06.132Z,98889.47
2023-03-06T20:16:35.091Z,98883.19
2023-03-06T20:19:05.041Z,98890.19
2023-03-06T20:21:37.756Z,98893.94
2023-03-06T20:24:08.211Z,98893.25
2023-03-06T20:26:38.713Z,98900.84
2023-03-06T20:29:07.641Z,98901.41
2023-03-06T20:31:36.826Z,98893.81
2023-03-06T20:34:05.440Z,98911.34
2023-03-06T20:36:37.221Z,98908.19
2023-03-06T20:39:10.100Z,98899.75
2023-03-06T20:41:39.713Z,98917.03
2023-03-06T20:44:13.406Z,98909.94
2023-03-06T20:46:43.053Z,98892.53
2023-03-06T20:49:13.451Z,98893.94
2023-03-06T20:51:43.013Z,98891.81
2023-03-06T20:54:14.340Z,98891.47
2023-03-06T20:56:46.731Z,98888.56
2023-03-06T20:59:15.038Z,98881.78
2023-03-06T21:01:45.909Z,98887.75
2023-03-06T21:04:15.788Z,98875.72
2023-03-06T21:06:47.003Z,98888.19
2023-03-06T21:09:16.810Z,98891.94
2023-03-06T21:11:46.192Z,98884.12
2023-03-06T21:14:15.648Z,98881.66
2023-03-06T21:16:43.935Z,98889.25
2023-03-06T21:19:12.763Z,98898.00
2023-03-06T21:21:41.342Z,98892.75
2023-03-06T21:24:09.664Z,98900.31
2023-03-06T21:26:39.424Z,98888.66
2023-03-06T21:29:08.361Z,98908.12
2023-03-06T21:31:36.679Z,98906.03
2023-03-06T21:34:06.281Z,98915.72
2023-03-06T21:36:34.790Z,98916.56
2023-03-06T21:39:06.222Z,98914.13
2023-03-06T21:41:34.991Z,98911.09
2023-03-06T21:44:05.285Z,98903.97
2023-03-06T21:46:34.154Z,98915.97
2023-03-06T21:49:04.552Z,98919.59
2023-03-06T21:51:33.622Z,98907.53
2023-03-06T21:54:03.074Z,98907.44
2023-03-06T21:56:33.426Z,98918.50
2023-03-06T21:59:02.186Z,98905.91
2023-03-06T22:01:31.144Z,98901.94
2023-03-06T22:04:00.116Z,98895.78
2023-03-06T22:06:30.408Z,98887.87
2023-03-06T22:09:00.111Z,98883.59
2023-03-06T22:11:31.379Z,98891.03
2023-03-06T22:13:59.895Z,98892.62
2023-03-06T22:16:28.916Z,98901.16
2023-03-06T22:18:57.170Z,98897.28
2023-03-06T22:21:25.306Z,98902.84
2023-03-06T22:23:58.716Z,98884.25
2023-03-06T22:26:28.738Z,98895.56
2023-03-06T22:28:57.474Z,98892.91
2023-03-06T22:31:28.496Z,98883.53
2023-03-06T22:33:59.812Z,98897.19
2023-03-06T22:36:33.190Z,98888.22
2023-03-06T22:39:02.832Z,98883.50
2023-03-06T22:41:35.672Z,98884.53
2023-03-06T22:44:04.292Z,98882.22
2023-03-06T22:46:33.077Z,98886.91
2023-03-06T22:49:02.404Z,98889.94
2023-03-06T22:51:31.009Z,98884.69
2023-03-06T22:53:59.315Z,98885.75
2023-03-06T22:56:27.450Z,98887.50
2023-03-06T22:58:57.681Z,98886.34
2023-03-06T23:01:29.202Z,98885.88
2023-03-06T23:04:03.092Z,98890.22
2023-03-06T23:06:34.414Z,98887.41
2023-03-06T23:09:06.808Z,98900.78
2023-03-06T23:11:53.600Z,98901.91
2023-03-06T23:14:40.343Z,98906.13
2023-03-06T23:17:27.731Z,98903.00
2023-03-06T23:20:14.656Z,98897.75
2023-03-06T23:23:01.256Z,98902.75
2023-03-06T23:25:44.624Z,98905.78
2023-03-06T23:28:13.765Z,98908.09
2023-03-06T23:30:42.481Z,98907.62
2023-03-06T23:33:11.120Z,98908.53
2023-03-06T23:35:39.683Z,98897.25
2023-03-06T23:38:07.905Z,98900.84
2023-03-06T23:40:37.998Z,98893.53
2023-03-06T23:43:06.626Z,98895.97
2023-03-06T23:45:34.792Z,98902.75
2023-03-06T23:48:05.154Z,98888.13
2023-03-06T23:50:33.643Z,98905.97
2023-03-06T23:53:01.983Z,98898.75
2023-03-06T23:55:31.443Z,98903.94
2023-03-06T23:58:00.022Z,98901.97
